Time;durP1;ratioP1;P1;durP2;ratioP2;P2;SDS_P1;SDS_P2;PMS_P1;PMS_P2;Temp;Humidity;BMP_temperature;BMP_pressure;BME280_temperature;BME280_humidity;BME280_pressure;Samples;Min_cycle;Max_cycle;Signal;HPM_P1;HPM_P2
2021/04/17 00:01:46;;;;;;;;;5.25;5.25;;;;;26.31;61.37;99128.88;4975478;28;8844;-76
2021/04/17 00:04:15;;;;;;;;;6.25;6.25;;;;;26.46;61.81;99146.09;4955692;28;8846;-75
2021/04/17 00:06:43;;;;;;;;;5.75;5.50;;;;;26.40;61.09;99144.84;4974349;28;8854;-75
2021/04/17 00:09:15;;;;;;;;;7.75;7.75;;;;;26.39;62.38;99139.78;4991335;28;8858;-74
2021/04/17 00:11:46;;;;;;;;;5.25;5.25;;;;;26.52;63.28;99162.81;4970274;28;8857;-75
2021/04/17 00:14:23;;;;;;;;;4.75;4.75;;;;;26.45;60.54;99158.06;4989347;28;8858;-76
2021/04/17 00:17:10;;;;;;;;;4.00;4.00;;;;;26.60;61.05;99169.88;4976356;28;8898;-74
2021/04/17 00:19:40;;;;;;;;;6.00;6.00;;;;;26.52;61.36;99163.59;4992008;28;8824;-76
2021/04/17 00:22:09;;;;;;;;;3.75;3.00;;;;;26.63;61.12;99178.06;4992331;28;8862;-74
2021/04/17 00:24:37;;;;;;;;;5.75;5.75;;;;;26.55;60.98;99167.50;4991812;28;8963;-75
2021/04/17 00:27:06;;;;;;;;;5.50;5.50;;;;;26.61;60.76;99176.88;4992063;28;8868;-76
2021/04/17 00:29:36;;;;;;;;;3.25;3.25;;;;;26.63;59.88;99177.28;4989036;28;8871;-76
2021/04/17 00:32:06;;;;;;;;;0.50;0.50;;;;;26.63;60.71;99174.59;4991653;28;8833;-75
2021/04/17 00:34:36;;;;;;;;;2.00;2.00;;;;;26.58;60.29;99177.59;4989268;28;8856;-75
2021/04/17 00:37:08;;;;;;;;;2.25;2.25;;;;;26.56;60.42;99164.44;4991384;28;8864;-74
2021/04/17 00:39:37;;;;;;;;;5.00;5.00;;;;;26.54;60.30;99168.63;4988362;28;8860;-77
2021/04/17 00:42:06;;;;;;;;;4.00;4.00;;;;;26.50;60.48;99171.28;4992084;28;8824;-77
2021/04/17 00:44:36;;;;;;;;;3.50;3.50;;;;;26.40;60.28;99158.38;4989095;28;8879;-77
2021/04/17 00:47:06;;;;;;;;;3.50;3.50;;;;;26.45;60.04;99166.19;4972218;28;9587;-78
2021/04/17 00:49:54;;;;;;;;;7.00;6.50;;;;;26.43;60.42;99171.16;4974379;28;8886;-76
2021/04/17 00:52:22;;;;;;;;;9.75;9.00;;;;;26.37;60.06;99169.13;4990910;28;8828;-77
2021/04/17 00:54:51;;;;;;;;;6.25;6.25;;;;;26.32;60.79;99172.91;4989876;28;8943;-73
2021/04/17 00:57:24;;;;;;;;;8.50;8.50;;;;;26.40;60.30;99187.34;4989458;28;8942;-76
2021/04/17 00:59:53;;;;;;;;;5.25;5.25;;;;;26.40;61.05;99192.75;4987504;28;8855;-75
2021/04/17 01:02:28;;;;;;;;;4.25;4.25;;;;;26.40;60.38;99190.03;4989055;28;8836;-76
2021/04/17 01:05:00;;;;;;;;;4.50;4.25;;;;;26.22;60.23;99165.38;4972609;28;8858;-75
2021/04/17 01:07:37;;;;;;;;;5.75;5.75;;;;;26.38;60.77;99195.81;4989150;28;8840;-75
2021/04/17 01:10:15;;;;;;;;;4.75;4.75;;;;;26.38;59.89;99203.16;4969907;28;9638;-75
2021/04/17 01:12:48;;;;;;;;;6.00;4.75;;;;;26.38;60.23;99200.44;4988743;28;9589;-75
2021/04/17 01:15:16;;;;;;;;;4.50;4.50;;;;;26.39;60.33;99205.50;4990319;28;9656;-78
2021/04/17 01:17:48;;;;;;;;;4.00;4.00;;;;;26.39;60.01;99205.50;4993807;28;8860;-75
2021/04/17 01:20:21;;;;;;;;;3.25;2.75;;;;;26.40;60.11;99208.97;4993531;28;8850;-75
2021/04/17 01:23:01;;;;;;;;;3.25;3.25;;;;;26.37;60.53;99205.06;4994261;28;8860;-75
2021/04/17 01:25:51;;;;;;;;;2.00;2.00;;;;;26.36;60.28;99208.91;4995135;28;8864;-75
2021/04/17 01:28:22;;;;;;;;;6.50;3.25;;;;;26.41;59.95;99202.44;4994264;28;8894;-74
2021/04/17 01:30:52;;;;;;;;;2.50;2.50;;;;;26.42;60.43;99212.09;4977024;28;8856;-75
2021/04/17 01:33:25;;;;;;;;;3.75;3.75;;;;;26.43;61.10;99213.66;4994659;28;8882;-73
2021/04/17 01:35:55;;;;;;;;;2.50;2.50;;;;;26.40;60.61;99217.09;4994516;28;8836;-74
2021/04/17 01:38:35;;;;;;;;;2.75;2.75;;;;;26.50;60.74;99228.09;4994743;28;8840;-74
2021/04/17 01:41:38;;;;;;;;;4.00;4.00;;;;;26.53;61.01;99229.31;4993895;28;8844;-74
2021/04/17 01:44:21;;;;;;;;;4.75;3.00;;;;;26.46;61.69;99216.44;4994180;28;8848;-75
2021/04/17 01:46:54;;;;;;;;;3.00;3.00;;;;;26.56;60.34;99217.75;4994014;28;8945;-73
2021/04/17 01:49:24;;;;;;;;;3.00;3.00;;;;;26.59;60.47;99227.84;4975105;28;8968;-74
2021/04/17 01:51:56;;;;;;;;;3.50;3.50;;;;;26.70;59.78;99228.81;4987247;28;8824;-73
2021/04/17 01:54:34;;;;;;;;;3.00;3.00;;;;;26.67;60.19;99217.94;4974188;28;8848;-74
2021/04/17 01:57:05;;;;;;;;;2.00;2.00;;;;;26.72;60.34;99218.41;4990944;28;8844;-76
2021/04/17 01:59:35;;;;;;;;;3.00;3.00;;;;;26.06;59.66;99124.16;4993677;28;8856;-75
2021/04/17 02:02:07;;;;;;;;;2.00;2.00;;;;;26.64;60.31;99203.97;4991261;28;8832;-74
2021/04/17 02:04:40;;;;;;;;;3.25;3.25;;;;;26.86;60.69;99228.69;4993873;28;8852;-73
2021/04/17 02:07:08;;;;;;;;;0.00;0.00;;;;;26.73;59.85;99197.53;4993664;28;8860;-73
2021/04/17 02:09:37;;;;;;;;;3.75;3.75;;;;;26.99;60.32;99232.00;4994258;28;8851;-73
2021/04/17 02:12:06;;;;;;;;;2.75;2.75;;;;;27.04;60.26;99231.69;4976056;28;8836;-73
2021/04/17 02:14:34;;;;;;;;;2.75;2.75;;;;;27.12;59.45;99227.94;4993406;28;8844;-73
2021/04/17 02:17:09;;;;;;;;;2.00;2.00;;;;;27.21;59.25;99236.59;4993217;28;8836;-73
2021/04/17 02:19:57;;;;;;;;;2.50;2.50;;;;;27.21;59.53;99239.28;4994124;28;8882;-74
2021/04/17 02:22:26;;;;;;;;;3.00;3.00;;;;;27.21;59.37;99233.88;4993321;28;8864;-75
2021/04/17 02:24:57;;;;;;;;;3.00;3.00;;;;;27.23;59.29;99239.72;4993477;28;8867;-74
2021/04/17 02:27:25;;;;;;;;;3.25;3.25;;;;;27.20;59.37;99235.81;4992848;28;9846;-75
2021/04/17 02:29:55;;;;;;;;;3.25;3.25;;;;;27.13;59.56;99224.88;4993865;28;8851;-73
2021/04/17 02:32:25;;;;;;;;;2.75;2.75;;;;;27.29;59.33;99244.44;4994640;28;8851;-74
2021/04/17 02:34:53;;;;;;;;;3.00;3.00;;;;;27.35;59.18;99241.38;4994552;28;9012;-74
2021/04/17 02:37:24;;;;;;;;;3.25;3.25;;;;;27.33;59.03;99238.25;4994804;28;8840;-71
2021/04/17 02:39:52;;;;;;;;;4.50;4.50;;;;;27.33;59.19;99227.44;4994694;28;8886;-74
2021/04/17 02:42:20;;;;;;;;;3.75;3.75;;;;;27.31;59.28;99225.09;4994484;28;8848;-73
2021/04/17 02:44:48;;;;;;;;;4.00;4.00;;;;;27.41;60.36;99237.22;4993805;28;8855;-73
2021/04/17 02:47:17;;;;;;;;;2.50;2.50;;;;;27.35;60.11;99225.13;4976824;28;8848;-74
2021/04/17 02:49:46;;;;;;;;;4.00;4.00;;;;;27.43;59.76;99230.28;4994682;28;8848;-73
2021/04/17 02:52:14;;;;;;;;;3.25;3.25;;;;;27.49;59.73;99234.22;4976164;28;8859;-73
2021/04/17 02:54:42;;;;;;;;;3.50;3.50;;;;;27.52;59.72;99233.50;4993948;28;8945;-76
2021/04/17 02:57:12;;;;;;;;;3.25;3.25;;;;;27.49;59.45;99220.69;4991528;28;8880;-75
2021/04/17 02:59:40;;;;;;;;;4.50;4.50;;;;;27.58;60.76;99232.03;4975419;28;8871;-74
2021/04/17 03:02:08;;;;;;;;;3.00;3.00;;;;;27.43;60.74;99189.66;4993109;28;8840;-74
2021/04/17 03:04:36;;;;;;;;;3.50;3.50;;;;;27.76;59.31;99224.16;4993001;28;8848;-73
2021/04/17 03:07:04;;;;;;;;;2.75;2.75;;;;;27.85;59.09;99226.56;4975394;28;8938;-76
2021/04/17 03:09:33;;;;;;;;;4.25;4.00;;;;;27.80;59.18;99207.94;4992349;28;8836;-73
2021/04/17 03:12:01;;;;;;;;;4.00;4.00;;;;;27.96;59.08;99222.03;4992022;28;8828;-74
2021/04/17 03:14:29;;;;;;;;;3.25;3.25;;;;;27.97;60.11;99217.41;4992281;28;8851;-75
2021/04/17 03:16:57;;;;;;;;;5.00;5.00;;;;;27.98;60.23;99200.75;4991800;28;8852;-75
2021/04/17 03:19:26;;;;;;;;;4.25;4.25;;;;;28.20;59.22;99215.31;4991763;28;8840;-76
2021/04/17 03:21:54;;;;;;;;;3.25;3.25;;;;;28.31;58.54;99218.16;4975117;28;8848;-76
2021/04/17 03:24:22;;;;;;;;;3.75;3.75;;;;;28.32;58.67;99217.81;4992102;28;8855;-74
2021/04/17 03:26:50;;;;;;;;;4.00;4.00;;;;;28.40;59.24;99202.38;4975177;28;8860;-74
2021/04/17 03:29:18;;;;;;;;;2.75;2.75;;;;;28.60;58.11;99225.41;4990928;28;8839;-74
2021/04/17 03:31:47;;;;;;;;;4.33;4.33;;;;;28.56;58.03;99216.47;4990100;28;8844;-76
2021/04/17 03:34:15;;;;;;;;;3.50;3.50;;;;;28.68;57.62;99223.50;4991150;28;8851;-74
2021/04/17 03:36:44;;;;;;;;;3.25;3.25;;;;;28.71;58.43;99220.03;4992453;28;8847;-75
2021/04/17 03:39:12;;;;;;;;;2.75;2.75;;;;;28.76;58.65;99216.97;4992265;28;8844;-75
2021/04/17 03:41:40;;;;;;;;;4.50;3.75;;;;;28.82;57.68;99201.91;4990824;28;8879;-74
2021/04/17 03:44:08;;;;;;;;;3.75;3.75;;;;;28.72;58.02;99191.75;4954959;28;8846;-74
2021/04/17 03:46:37;;;;;;;;;3.75;3.75;;;;;28.82;57.52;99183.69;4972361;28;9270;-73
2021/04/17 03:49:05;;;;;;;;;5.25;5.25;;;;;28.82;57.74;99174.75;4955746;28;8830;-73
2021/04/17 03:51:34;;;;;;;;;3.25;3.25;;;;;28.96;57.57;99193.09;4972064;28;8873;-71
2021/04/17 03:54:02;;;;;;;;;4.00;4.00;;;;;28.93;57.51;99178.34;4972251;28;8834;-70
2021/04/17 03:56:30;;;;;;;;;3.00;3.00;;;;;29.07;57.47;99191.22;4986392;28;9589;-72
2021/04/17 03:58:59;;;;;;;;;4.00;4.00;;;;;28.93;57.18;99167.47;4990861;28;8848;-73
2021/04/17 04:01:27;;;;;;;;;3.75;3.75;;;;;29.16;57.40;99178.88;4990557;28;8863;-72
2021/04/17 04:03:57;;;;;;;;;3.75;3.75;;;;;28.76;57.62;99117.31;4991375;28;8848;-72
2021/04/17 04:06:26;;;;;;;;;4.50;3.50;;;;;29.29;56.87;99171.16;4991246;28;8843;-73
2021/04/17 04:08:57;;;;;;;;;4.50;4.50;;;;;29.18;56.97;99148.59;4991030;28;8832;-74
2021/04/17 04:11:25;;;;;;;;;4.00;4.00;;;;;29.44;56.60;99175.53;4990846;28;8852;-75
2021/04/17 04:13:54;;;;;;;;;0.00;0.00;;;;;29.36;56.64;99149.47;4989706;28;8863;-73
2021/04/17 04:16:22;;;;;;;;;3.75;3.75;;;;;29.53;56.44;99167.03;4989242;28;8937;-73
2021/04/17 04:18:50;;;;;;;;;4.50;4.50;;;;;29.56;56.68;99158.09;4989945;28;8874;-72
2021/04/17 04:21:18;;;;;;;;;3.00;3.00;;;;;29.60;56.08;99156.19;4990931;28;8918;-73
2021/04/17 04:23:49;;;;;;;;;5.75;5.75;;;;;29.59;56.57;99132.09;4990193;28;8917;-72
2021/04/17 04:26:18;;;;;;;;;3.75;3.75;;;;;29.91;56.43;99151.94;4990313;28;9708;-71
2021/04/17 04:28:47;;;;;;;;;5.00;5.00;;;;;29.97;56.09;99142.25;4990105;28;9640;-71
2021/04/17 04:31:15;;;;;;;;;5.00;5.00;;;;;30.00;55.46;99143.41;4990328;28;8859;-71
2021/04/17 04:33:44;;;;;;;;;5.00;5.00;;;;;30.11;55.88;99152.41;4987681;28;8882;-71
2021/04/17 04:36:12;;;;;;;;;4.00;4.00;;;;;30.14;56.06;99146.97;4990521;28;8879;-71
2021/04/17 04:38:41;;;;;;;;;3.25;3.25;;;;;30.14;54.95;99148.91;4987557;28;8827;-72
2021/04/17 04:41:09;;;;;;;;;9.50;9.50;;;;;29.96;55.82;99112.72;4990465;28;8845;-71
2021/04/17 04:43:38;;;;;;;;;32.75;31.50;;;;;29.99;56.01;99114.66;4989340;28;8832;-71
2021/04/17 04:46:06;;;;;;;;;51.00;41.75;;;;;30.07;55.19;99127.91;4972510;28;8848;-71
2021/04/17 04:48:35;;;;;;;;;18.25;16.75;;;;;29.91;55.92;99100.28;4989777;28;9607;-71
2021/04/17 04:51:04;;;;;;;;;16.25;15.25;;;;;29.99;55.33;99109.22;4987070;28;8863;-71
2021/04/17 04:53:32;;;;;;;;;61.00;50.75;;;;;29.97;55.75;99111.56;4990077;28;8858;-72
2021/04/17 04:56:04;;;;;;;;;12.25;12.25;;;;;30.06;55.79;99111.97;4991046;28;10082;-72
2021/04/17 04:58:32;;;;;;;;;10.25;10.25;;;;;30.07;55.75;99110.81;4973993;28;8967;-72
2021/04/17 05:01:01;;;;;;;;;6.75;6.75;;;;;30.00;55.94;99102.63;4991284;28;8860;-71
2021/04/17 05:03:30;;;;;;;;;6.00;6.00;;;;;30.08;55.52;99107.69;4992048;28;8946;-72
2021/04/17 05:05:58;;;;;;;;;6.00;6.00;;;;;30.19;54.97;99113.94;4973739;28;8871;-72
2021/04/17 05:08:26;;;;;;;;;6.50;6.50;;;;;30.26;55.93;99109.66;4991170;28;8859;-72
2021/04/17 05:11:01;;;;;;;;;2.75;2.75;;;;;30.23;55.20;99096.81;4982769;28;8839;-72
2021/04/17 05:13:30;;;;;;;;;6.50;6.50;;;;;30.16;55.28;99098.38;4988911;28;8860;-72
2021/04/17 05:16:10;;;;;;;;;6.00;6.00;;;;;30.16;55.55;99092.16;4988759;28;8896;-72
2021/04/17 05:18:38;;;;;;;;;5.50;5.50;;;;;30.14;55.68;99091.78;4973258;28;8816;-72
2021/04/17 05:21:07;;;;;;;;;0.50;0.50;;;;;30.11;55.41;99090.59;4974176;28;8844;-72
2021/04/17 05:23:36;;;;;;;;;5.25;5.25;;;;;30.10;55.60;99088.28;4984787;28;9613;-72
2021/04/17 05:26:05;;;;;;;;;6.50;6.50;;;;;30.15;55.38;99085.16;4970461;28;8832;-70
2021/04/17 05:28:33;;;;;;;;;3.00;3.00;;;;;30.14;55.66;99067.28;4983615;28;8840;-72
2021/04/17 05:31:02;;;;;;;;;4.00;4.00;;;;;30.28;55.24;99089.03;4987961;28;8859;-73
2021/04/17 05:33:30;;;;;;;;;10.00;10.00;;;;;30.34;55.06;99079.31;4988100;28;8840;-73
2021/04/17 05:35:59;;;;;;;;;13.00;13.00;;;;;30.28;55.09;99053.66;4990363;28;8852;-72
2021/04/17 05:38:27;;;;;;;;;10.75;10.75;;;;;30.41;54.94;99062.97;4990246;28;8943;-72
2021/04/17 05:40:56;;;;;;;;;9.00;9.00;;;;;30.46;55.08;99067.25;4990435;28;8836;-72
2021/04/17 05:43:25;;;;;;;;;5.00;5.00;;;;;30.40;54.61;99039.66;4988795;28;8863;-73
2021/04/17 05:45:53;;;;;;;;;5.50;5.50;;;;;30.55;54.83;99047.78;4990197;28;8856;-72
2021/04/17 05:48:22;;;;;;;;;6.25;6.25;;;;;30.68;54.28;99047.00;4988618;28;9554;-72
2021/04/17 05:50:52;;;;;;;;;5.00;5.00;;;;;30.60;54.38;99014.75;4989928;28;8875;-73
2021/04/17 05:53:21;;;;;;;;;6.00;6.00;;;;;30.73;53.66;99015.88;4990077;28;8852;-72
2021/04/17 05:55:49;;;;;;;;;4.50;4.50;;;;;30.91;54.07;99030.19;4989975;28;8987;-72
2021/04/17 05:58:17;;;;;;;;;5.25;5.25;;;;;30.79;54.43;99011.56;4989666;28;8844;-73
2021/04/17 06:00:45;;;;;;;;;5.00;5.00;;;;;30.73;53.32;99004.97;4989076;28;8941;-73
2021/04/17 06:03:14;;;;;;;;;5.00;5.00;;;;;30.79;54.41;99025.19;4992565;28;8864;-75
2021/04/17 06:05:43;;;;;;;;;3.75;3.75;;;;;30.74;54.95;99017.41;4993987;28;8840;-72
2021/04/17 06:08:11;;;;;;;;;3.00;3.00;;;;;30.59;54.75;98989.47;4994250;28;8995;-72
2021/04/17 06:10:39;;;;;;;;;8.75;8.50;;;;;30.67;54.65;98998.38;4990558;28;8954;-71
2021/04/17 06:13:08;;;;;;;;;6.25;6.25;;;;;30.68;54.05;98997.22;4993387;28;8864;-72
2021/04/17 06:15:36;;;;;;;;;4.00;4.00;;;;;30.61;54.42;98978.19;4992932;28;8856;-71
2021/04/17 06:18:04;;;;;;;;;6.00;5.00;;;;;30.73;54.08;98972.28;4991154;28;8871;-72
2021/04/17 06:20:33;;;;;;;;;6.00;6.00;;;;;30.91;54.20;98967.53;4994196;28;8961;-72
2021/04/17 06:23:01;;;;;;;;;6.75;6.75;;;;;30.98;53.45;98964.00;4992279;28;9659;-72
2021/04/17 06:25:29;;;;;;;;;0.75;0.00;;;;;31.17;53.80;98962.75;4994082;28;8835;-71
2021/04/17 06:27:58;;;;;;;;;8.00;7.00;;;;;31.32;53.60;98964.94;4993172;28;8866;-72
2021/04/17 06:30:26;;;;;;;;;6.25;6.25;;;;;31.44;52.91;98952.78;4986915;28;8854;-72
2021/04/17 06:32:58;;;;;;;;;6.75;6.75;;;;;31.56;53.08;98949.59;4992078;28;8962;-71
2021/04/17 06:35:27;;;;;;;;;6.75;6.00;;;;;31.71;52.44;98940.13;4974399;28;8906;-72
2021/04/17 06:37:57;;;;;;;;;5.75;5.75;;;;;31.76;52.68;98934.25;4990724;28;8918;-71
2021/04/17 06:40:25;;;;;;;;;5.25;5.25;;;;;31.83;53.28;98927.94;4992032;28;8848;-72
2021/04/17 06:42:57;;;;;;;;;5.25;5.25;;;;;31.80;52.38;98931.47;4992358;28;9557;-72
2021/04/17 06:45:26;;;;;;;;;6.00;6.00;;;;;31.75;52.78;98931.91;4992468;28;8808;-72
2021/04/17 06:47:56;;;;;;;;;6.25;6.25;;;;;31.66;52.85;98917.94;4992381;28;8925;-71
2021/04/17 06:50:26;;;;;;;;;6.00;6.00;;;;;31.53;53.20;98908.72;4992909;28;8817;-72
2021/04/17 06:52:56;;;;;;;;;6.75;6.75;;;;;31.53;53.08;98925.84;4993750;28;8828;-71
2021/04/17 06:55:25;;;;;;;;;5.75;5.75;;;;;31.40;52.46;98913.88;4990604;28;8840;-70
2021/04/17 06:57:53;;;;;;;;;7.50;7.50;;;;;31.42;52.60;98925.16;4993396;28;8890;-71
2021/04/17 07:00:23;;;;;;;;;6.00;6.00;;;;;31.34;52.71;98918.22;4991711;28;8956;-74
2021/04/17 07:02:52;;;;;;;;;5.75;5.75;;;;;31.33;52.72;98912.00;4990895;28;8824;-72
2021/04/17 07:05:22;;;;;;;;;5.00;5.00;;;;;31.39;53.34;98923.22;4988524;28;8882;-72
2021/04/17 07:07:50;;;;;;;;;5.75;5.75;;;;;31.33;52.30;98905.75;4990772;28;8979;-73
2021/04/17 07:10:19;;;;;;;;;5.75;5.75;;;;;31.36;52.83;98907.69;4987898;28;8843;-74
2021/04/17 07:12:47;;;;;;;;;7.25;7.25;;;;;31.35;52.27;98901.47;4990695;28;8847;-72
2021/04/17 07:15:16;;;;;;;;;6.50;6.50;;;;;31.41;51.35;98897.13;4988651;28;8858;-71
2021/04/17 07:17:44;;;;;;;;;8.00;8.00;;;;;31.42;52.35;98890.50;4988695;28;8836;-73
2021/04/17 07:20:13;;;;;;;;;9.50;9.50;;;;;31.45;52.49;98875.28;4989437;28;8848;-75
2021/04/17 07:22:42;;;;;;;;;6.25;6.25;;;;;31.45;52.02;98859.69;4987580;28;9571;-73
2021/04/17 07:25:11;;;;;;;;;7.50;7.50;;;;;31.67;52.53;98881.31;4988894;28;8894;-71
2021/04/17 07:27:40;;;;;;;;;7.50;7.50;;;;;31.71;52.00;98876.63;4988495;28;8851;-73
2021/04/17 07:30:09;;;;;;;;;7.75;7.75;;;;;31.75;52.66;98875.41;4970904;28;8860;-73
2021/04/17 07:32:38;;;;;;;;;5.25;5.25;;;;;31.65;53.11;98856.41;4971651;28;8852;-75
2021/04/17 07:35:12;;;;;;;;;6.75;6.75;;;;;31.60;52.84;98860.34;4991819;28;8927;-72
2021/04/17 07:37:42;;;;;;;;;7.75;7.75;;;;;31.44;52.68;98857.38;4971550;28;8855;-75
2021/04/17 07:40:16;;;;;;;;;5.50;5.50;;;;;31.40;52.74;98862.84;4989106;28;8883;-73
2021/04/17 07:42:55;;;;;;;;;5.75;5.75;;;;;31.41;53.14;98863.63;4970116;28;9677;-72
2021/04/17 07:45:29;;;;;;;;;7.75;7.75;;;;;31.40;52.92;98856.63;4988864;28;8871;-74
2021/04/17 07:48:21;;;;;;;;;7.50;7.50;;;;;31.34;53.00;98837.22;4988691;28;8844;-73
2021/04/17 07:50:50;;;;;;;;;6.25;6.25;;;;;31.51;52.97;98846.41;4969813;28;8870;-73
2021/04/17 07:53:31;;;;;;;;;6.50;6.50;;;;;31.58;52.87;98842.84;4986168;28;8958;-72
2021/04/17 07:56:25;;;;;;;;;6.00;6.00;;;;;31.61;52.69;98844.75;4988743;28;8924;-72
2021/04/17 07:59:00;;;;;;;;;6.50;6.50;;;;;31.59;52.88;98839.72;4988377;28;8813;-72
2021/04/17 08:01:31;;;;;;;;;6.00;6.00;;;;;31.60;52.63;98843.97;4987253;28;8875;-73
2021/04/17 08:04:01;;;;;;;;;6.00;6.00;;;;;31.42;53.09;98824.28;4988241;28;8859;-73
2021/04/17 08:06:33;;;;;;;;;7.25;7.25;;;;;31.46;53.11;98812.16;4988956;28;8966;-74
2021/04/17 08:09:01;;;;;;;;;7.00;7.00;;;;;31.61;53.09;98833.84;4987329;28;8978;-75
2021/04/17 08:11:33;;;;;;;;;6.25;6.25;;;;;31.54;53.35;98810.16;4971741;28;8899;-73
2021/04/17 08:14:04;;;;;;;;;7.75;7.75;;;;;31.52;52.90;98804.31;4989221;28;8922;-74
2021/04/17 08:16:34;;;;;;;;;9.00;7.75;;;;;31.57;53.21;98816.75;4989716;28;10641;-76
2021/04/17 08:19:03;;;;;;;;;10.00;10.00;;;;;31.57;53.29;98827.66;4987924;28;9573;-77
2021/04/17 08:21:41;;;;;;;;;3.50;3.50;;;;;31.48;53.70;98819.94;4990276;28;8866;-76
2021/04/17 08:24:14;;;;;;;;;5.75;5.75;;;;;31.51;53.57;98808.22;4953677;28;8858;-74
2021/04/17 08:26:42;;;;;;;;;7.25;7.25;;;;;31.47;53.81;98804.78;4973826;28;8871;-76
2021/04/17 08:29:45;;;;;;;;;7.75;7.75;;;;;31.49;53.43;98805.13;4988448;28;8859;-74
2021/04/17 08:32:24;;;;;;;;;6.25;6.25;;;;;31.55;53.13;98791.84;4987761;28;8840;-74
2021/04/17 08:35:05;;;;;;;;;6.00;6.00;;;;;31.60;53.10;98788.66;4987769;28;8851;-78
2021/04/17 08:37:55;;;;;;;;;9.00;9.00;;;;;31.67;53.16;98783.91;4987266;28;8855;-76
2021/04/17 08:40:33;;;;;;;;;6.50;6.50;;;;;31.83;52.86;98780.63;4988328;28;8864;-76
2021/04/17 08:43:04;;;;;;;;;7.00;7.00;;;;;31.93;52.51;98768.81;4988128;28;8886;-74
2021/04/17 08:45:32;;;;;;;;;6.25;6.25;;;;;32.06;52.20;98782.69;4987979;28;9530;-73
2021/04/17 08:48:02;;;;;;;;;5.75;5.75;;;;;32.12;52.00;98764.69;4987825;28;8887;-74
2021/04/17 08:50:42;;;;;;;;;7.50;7.50;;;;;32.29;52.27;98777.34;4988092;28;8883;-74
2021/04/17 08:53:12;;;;;;;;;8.50;8.50;;;;;32.41;52.42;98774.06;4966505;28;8864;-72
2021/04/17 08:55:46;;;;;;;;;6.25;6.25;;;;;32.41;51.04;98767.81;4988854;28;8864;-73
2021/04/17 08:58:22;;;;;;;;;6.00;6.00;;;;;32.46;51.95;98770.09;4982834;28;8849;-73
2021/04/17 09:00:54;;;;;;;;;8.75;8.75;;;;;32.57;51.37;98759.75;4970160;28;8860;-73
2021/04/17 09:03:37;;;;;;;;;5.80;5.80;;;;;32.71;50.84;98764.22;4988157;28;8831;-73
2021/04/17 09:06:27;;;;;;;;;6.00;6.00;;;;;32.77;52.03;98739.97;4988248;28;8860;-73
2021/04/17 09:12:09;;;;;;;;;8.00;8.00;;;;;32.81;51.02;98748.88;4986551;28;8830;-74
2021/04/17 09:14:55;;;;;;;;;8.00;8.00;;;;;32.78;51.39;98746.97;4972094;28;9569;-73
2021/04/17 09:17:33;;;;;;;;;7.25;7.25;;;;;32.73;51.00;98743.50;4968687;28;8942;-73
2021/04/17 09:20:05;;;;;;;;;33.50;32.00;;;;;32.65;50.29;98730.38;4987875;28;8950;-73
2021/04/17 09:22:34;;;;;;;;;6.00;6.00;;;;;32.80;50.39;98736.41;4987887;28;8848;-73
2021/04/17 09:25:08;;;;;;;;;7.40;7.40;;;;;32.88;50.43;98735.09;4970123;28;8854;-75
2021/04/17 09:27:45;;;;;;;;;6.60;6.60;;;;;32.86;51.58;98712.88;4980688;28;9007;-74
2021/04/17 09:30:20;;;;;;;;;7.00;7.00;;;;;32.86;51.50;98723.81;4987033;28;8970;-74
2021/04/17 09:32:57;;;;;;;;;15.00;15.00;;;;;32.77;50.45;98715.38;4986163;28;9623;-74
2021/04/17 09:35:28;;;;;;;;;6.40;6.40;;;;;32.80;50.90;98722.75;4987189;28;8809;-75
2021/04/17 09:38:07;;;;;;;;;7.60;7.60;;;;;32.79;50.10;98729.38;4988820;28;8878;-74
2021/04/17 09:40:42;;;;;;;;;9.80;9.80;;;;;32.85;50.11;98712.09;4988028;28;8854;-75
2021/04/17 09:43:22;;;;;;;;;5.60;5.60;;;;;32.92;51.37;98722.13;4989214;28;8994;-76
2021/04/17 09:45:51;;;;;;;;;6.40;6.40;;;;;32.84;50.60;98713.28;4991646;28;8942;-76
2021/04/17 09:48:22;;;;;;;;;7.20;6.80;;;;;32.81;50.81;98716.84;4974647;28;8848;-73
2021/04/17 09:50:55;;;;;;;;;7.00;7.00;;;;;32.77;51.14;98724.34;4972375;28;8940;-72
2021/04/17 09:53:32;;;;;;;;;7.80;7.80;;;;;32.67;51.04;98723.31;4993444;28;8844;-73
2021/04/17 09:56:14;;;;;;;;;7.60;7.60;;;;;32.56;51.24;98711.00;4976180;28;8848;-74
2021/04/17 09:58:44;;;;;;;;;8.75;8.25;;;;;32.56;50.65;98716.47;4993750;28;8963;-75
2021/04/17 10:01:15;;;;;;;;;6.75;6.75;;;;;32.55;50.29;98734.81;4993950;28;8898;-75
2021/04/17 10:03:50;;;;;;;;;6.75;6.75;;;;;32.53;50.24;98744.59;4991260;28;8848;-73
2021/04/17 10:06:37;;;;;;;;;9.25;9.25;;;;;32.52;51.33;98740.31;4991485;28;9582;-73
2021/04/17 10:09:12;;;;;;;;;6.25;6.00;;;;;32.47;50.83;98746.28;4991297;28;9387;-73
2021/04/17 10:11:43;;;;;;;;;6.00;6.00;;;;;32.44;50.87;98747.88;4992777;28;8864;-72
2021/04/17 10:14:14;;;;;;;;;6.50;6.50;;;;;32.39;51.14;98751.06;4990956;28;8851;-72
2021/04/17 10:16:45;;;;;;;;;7.00;7.00;;;;;32.23;51.18;98734.53;4993621;28;8836;-73
2021/04/17 10:19:16;;;;;;;;;7.75;7.75;;;;;32.20;50.99;98755.22;4991628;28;9009;-73
2021/04/17 10:21:46;;;;;;;;;6.75;6.75;;;;;32.11;50.98;98752.22;4993069;28;8854;-72
2021/04/17 10:24:22;;;;;;;;;8.00;8.00;;;;;32.01;50.66;98756.63;4976265;28;8914;-73
2021/04/17 10:27:04;;;;;;;;;9.25;8.50;;;;;31.94;51.36;98742.31;4990578;28;8878;-72
2021/04/17 10:29:41;;;;;;;;;8.25;8.25;;;;;31.84;50.65;98740.50;4991174;28;8848;-72
2021/04/17 10:32:26;;;;;;;;;6.75;6.75;;;;;31.82;51.05;98734.69;4990702;28;9588;-72
2021/04/17 10:35:00;;;;;;;;;7.75;7.75;;;;;31.72;51.26;98747.25;4991286;28;8840;-72
2021/04/17 10:37:29;;;;;;;;;8.75;8.75;;;;;31.59;51.22;98735.31;4993658;28;8824;-72
2021/04/17 10:40:07;;;;;;;;;9.25;9.25;;;;;31.57;50.94;98746.63;4993852;28;8847;-72
2021/04/17 10:42:48;;;;;;;;;8.25;7.00;;;;;31.48;50.85;98747.13;4993043;28;8832;-72
2021/04/17 10:45:19;;;;;;;;;9.50;9.50;;;;;31.38;51.01;98744.50;4992852;28;8859;-73
2021/04/17 10:48:07;;;;;;;;;7.75;7.75;;;;;31.36;51.02;98742.19;4991424;28;8863;-72
2021/04/17 10:50:39;;;;;;;;;6.75;6.75;;;;;31.34;51.66;98739.09;4991911;28;8874;-72
2021/04/17 10:53:13;;;;;;;;;9.00;9.00;;;;;31.29;51.43;98741.47;4992344;28;8828;-71
2021/04/17 10:55:43;;;;;;;;;9.00;9.00;;;;;31.23;51.47;98745.81;4992024;28;8902;-72
2021/04/17 10:58:21;;;;;;;;;8.50;8.50;;;;;31.13;51.16;98745.56;4992472;28;8835;-72
2021/04/17 11:00:56;;;;;;;;;7.50;7.50;;;;;31.00;51.55;98740.97;4992327;28;8855;-72
2021/04/17 11:03:27;;;;;;;;;8.50;8.50;;;;;31.03;51.15;98751.06;4990099;28;8906;-72
2021/04/17 11:05:57;;;;;;;;;10.00;9.00;;;;;30.79;51.74;98729.09;4992381;28;8824;-72
2021/04/17 11:08:31;;;;;;;;;8.00;8.00;;;;;30.86;51.23;98744.59;4992290;28;8828;-72
2021/04/17 11:11:09;;;;;;;;;6.75;6.75;;;;;30.85;51.75;98753.19;4992433;28;8849;-73
2021/04/17 11:13:42;;;;;;;;;6.00;6.00;;;;;30.79;51.51;98761.00;4992336;28;8855;-72
2021/04/17 11:16:13;;;;;;;;;8.75;8.75;;;;;30.81;51.38;98764.09;4992220;28;8895;-72
2021/04/17 11:18:44;;;;;;;;;10.50;10.00;;;;;30.83;51.61;98772.66;4992097;28;8836;-72
2021/04/17 11:21:12;;;;;;;;;10.00;10.00;;;;;30.80;51.91;98776.94;4992827;28;8834;-72
2021/04/17 11:23:42;;;;;;;;;9.75;9.25;;;;;30.74;52.06;98784.00;4992406;28;8871;-72
2021/04/17 11:26:14;;;;;;;;;12.25;12.25;;;;;30.67;51.97;98789.50;4975436;28;8843;-72
2021/04/17 11:28:44;;;;;;;;;12.25;12.25;;;;;30.59;52.12;98789.94;4993437;28;8836;-72
2021/04/17 11:31:21;;;;;;;;;9.00;8.75;;;;;30.50;51.83;98791.13;4993481;28;8861;-71
2021/04/17 11:33:51;;;;;;;;;9.00;9.00;;;;;30.41;52.34;98782.63;4991372;28;8828;-72
2021/04/17 11:36:21;;;;;;;;;6.75;6.75;;;;;30.42;52.00;98788.84;4992015;28;8851;-72
2021/04/17 11:38:51;;;;;;;;;10.00;10.00;;;;;30.29;51.87;98776.88;4985507;28;8856;-71
2021/04/17 11:41:20;;;;;;;;;9.75;9.75;;;;;30.30;52.40;98794.75;4986145;28;8828;-73
2021/04/17 11:43:52;;;;;;;;;12.25;12.25;;;;;30.23;52.54;98792.06;4986135;28;8839;-73
2021/04/17 11:46:21;;;;;;;;;12.50;12.50;;;;;30.20;52.88;98801.78;4970833;28;8930;-73
2021/04/17 11:48:51;;;;;;;;;13.00;12.00;;;;;30.14;52.74;98798.72;4990753;28;9574;-74
2021/04/17 11:51:21;;;;;;;;;15.25;15.25;;;;;30.15;52.73;98813.84;4987882;28;8844;-73
2021/04/17 11:54:09;;;;;;;;;22.25;22.25;;;;;30.15;52.93;98813.84;4971151;28;8816;-72
2021/04/17 11:56:37;;;;;;;;;22.75;22.00;;;;;30.14;53.03;98819.69;4912365;29;8853;-73
2021/04/17 11:59:06;;;;;;;;;20.75;20.75;;;;;30.07;53.08;98815.06;4929712;29;8849;-73
2021/04/17 12:01:34;;;;;;;;;21.25;20.75;;;;;30.06;53.14;98823.63;4927172;29;8868;-73
2021/04/17 12:04:03;;;;;;;;;20.00;20.00;;;;;30.00;53.06;98827.88;4929059;29;8871;-73